Disclaimer

Please do not use the information listed here in-flight or in-navigation, as they are not provided to us by the airports but are provided by volunteers, so they might be outdated.

Search


Regions


Airport information page

No radio frequency information is available.

Airport informations:
Latitude: 70° 21' 19.41" N
Longitude: 031° 02' 41.60" E
Elevation: 42 feet - 13 meters
Operating hours: UNKNOWN
Operating agency: Civil government, landing fees and diplomatic clearance may be required
Timezone: UTC+1(+2DT) - Last Sunday in March to last Sunday in October
Fuel: Jet A1, without icing nhibitor.

Runway information:
15/33 - 3707 x 98 feet< - >1130 x 30 meters

Recent METARs:
ENSS 202120Z 33028G38KT 9999 VCSH FEW027 BKN035 02/M03 Q1023 RMK WIND 500FT 33030G40KT
ENSS 202120Z 33028G38KT 9999 VCSH FEW027 BKN035 02/M03 Q1023 RMK WIND 500FT 33030G40KT
ENSS 202120Z 33028G38KT 9999 VCSH FEW027 BKN035 02/M03 Q1023 RMK WIND 500FT 33030G40KT

Airport on the map: